createdAt,value
2023-05-05T00:02:16.143Z,101682.00
2023-05-05T00:04:43.224Z,101683.00
2023-05-05T00:07:10.865Z,101677.00
2023-05-05T00:09:37.632Z,101677.00
2023-05-05T00:12:04.456Z,101672.00
2023-05-05T00:14:31.295Z,101672.00
2023-05-05T00:16:58.369Z,101676.00
2023-05-05T00:19:27.317Z,101677.00
2023-05-05T00:21:53.825Z,101677.00
2023-05-05T00:24:20.462Z,101663.00
2023-05-05T00:26:47.207Z,101668.00
2023-05-05T00:29:13.755Z,101665.00
2023-05-05T00:31:40.694Z,101668.00
2023-05-05T00:34:07.528Z,101661.00
2023-05-05T00:36:34.545Z,101663.00
2023-05-05T00:39:01.200Z,101655.00
2023-05-05T00:41:27.761Z,101661.00
2023-05-05T00:43:55.538Z,101664.00
2023-05-05T00:46:31.131Z,101653.00
2023-05-05T00:48:59.272Z,101658.00
2023-05-05T00:51:31.236Z,101642.00
2023-05-05T00:53:57.872Z,101650.00
2023-05-05T00:56:27.226Z,101648.00
2023-05-05T00:58:53.935Z,101643.00
2023-05-05T01:01:21.696Z,101657.00
2023-05-05T01:03:48.431Z,101648.00
2023-05-05T01:06:43.590Z,101650.00
2023-05-05T01:09:35.055Z,101645.00
2023-05-05T01:12:25.956Z,101636.00
2023-05-05T01:15:14.830Z,101649.00
2023-05-05T01:17:56.391Z,101652.00
2023-05-05T01:20:37.684Z,101651.00
2023-05-05T01:23:07.146Z,101642.00
2023-05-05T01:26:09.410Z,101652.00
2023-05-05T01:29:06.656Z,101648.00
2023-05-05T01:31:52.838Z,101643.00
2023-05-05T01:34:28.786Z,101638.00
2023-05-05T01:37:08.921Z,101642.00
2023-05-05T01:39:37.310Z,101643.00
2023-05-05T01:42:10.516Z,101643.00
2023-05-05T01:44:37.869Z,101646.00
2023-05-05T01:47:08.695Z,101648.00
2023-05-05T01:49:38.946Z,101645.00
2023-05-05T01:52:07.009Z,101642.00
2023-05-05T01:54:35.030Z,101639.00
2023-05-05T01:57:04.896Z,101637.00
2023-05-05T01:59:32.690Z,101635.00
2023-05-05T02:02:02.359Z,101635.00
2023-05-05T02:04:33.409Z,101629.00
2023-05-05T02:07:02.338Z,101635.00
2023-05-05T02:09:30.652Z,101623.00
2023-05-05T02:11:58.954Z,101626.00
2023-05-05T02:14:29.580Z,101625.00
2023-05-05T02:16:57.939Z,101629.00
2023-05-05T02:19:29.923Z,101632.00
2023-05-05T02:21:57.592Z,101619.00
2023-05-05T02:24:27.413Z,101621.00
2023-05-05T02:26:56.550Z,101628.00
2023-05-05T02:29:35.553Z,101627.00
2023-05-05T02:32:06.051Z,101627.00
2023-05-05T02:34:39.920Z,101631.00
2023-05-05T02:37:11.539Z,101623.00
2023-05-05T02:39:45.680Z,101629.00
2023-05-05T02:42:19.446Z,101622.00
2023-05-05T02:44:46.419Z,101620.00
2023-05-05T02:47:13.298Z,101613.00
2023-05-05T02:49:39.782Z,101619.00
2023-05-05T02:52:07.908Z,101615.00
2023-05-05T02:54:39.516Z,101613.00
2023-05-05T02:57:06.753Z,101621.00
2023-05-05T02:59:42.357Z,101625.00
2023-05-05T03:02:27.428Z,101623.00
2023-05-05T03:05:04.404Z,101620.00
2023-05-05T03:07:37.643Z,101612.00
2023-05-05T03:10:09.448Z,101624.00
2023-05-05T03:12:46.212Z,101613.00
2023-05-05T03:15:15.269Z,101616.00
2023-05-05T03:17:44.011Z,101625.00
2023-05-05T03:20:12.678Z,101620.00
2023-05-05T03:22:39.539Z,101615.00
2023-05-05T03:25:06.625Z,101615.00
2023-05-05T03:27:34.493Z,101614.00
2023-05-05T03:30:01.534Z,101628.00
2023-05-05T03:32:29.049Z,101616.00
2023-05-05T03:34:56.007Z,101618.00
2023-05-05T03:37:22.956Z,101619.00
2023-05-05T03:39:49.663Z,101620.00
2023-05-05T03:42:17.157Z,101612.00
2023-05-05T03:44:44.100Z,101615.00
2023-05-05T03:47:11.895Z,101617.00
2023-05-05T03:49:38.466Z,101618.00
2023-05-05T03:52:06.530Z,101613.00
2023-05-05T03:54:38.965Z,101609.00
2023-05-05T03:57:05.542Z,101612.00
2023-05-05T03:59:32.666Z,101608.00
2023-05-05T04:01:59.247Z,101606.00
2023-05-05T04:04:25.838Z,101597.00
2023-05-05T04:06:52.769Z,101598.00
2023-05-05T04:09:19.357Z,101603.00
2023-05-05T04:11:46.087Z,101617.00
2023-05-05T04:14:13.079Z,101604.00
2023-05-05T04:16:40.806Z,101603.00
2023-05-05T04:19:07.517Z,101614.00
2023-05-05T04:21:35.639Z,101608.00
2023-05-05T04:24:02.116Z,101607.00
2023-05-05T04:26:28.654Z,101614.00
2023-05-05T04:28:55.752Z,101616.00
2023-05-05T04:31:22.564Z,101618.00
2023-05-05T04:33:49.079Z,101620.00
2023-05-05T04:36:15.504Z,101621.00
2023-05-05T04:38:42.532Z,101627.00
2023-05-05T04:41:13.216Z,101624.00
2023-05-05T04:43:41.594Z,101621.00
2023-05-05T04:46:08.140Z,101624.00
2023-05-05T04:48:37.058Z,101633.00
2023-05-05T04:51:05.228Z,101634.00
2023-05-05T04:53:33.017Z,101635.00
2023-05-05T04:56:04.433Z,101646.00
2023-05-05T04:58:32.431Z,101641.00
2023-05-05T05:01:02.723Z,101635.00
2023-05-05T05:03:31.989Z,101642.00
2023-05-05T05:05:59.878Z,101640.00
2023-05-05T05:08:26.427Z,101647.00
2023-05-05T05:10:53.174Z,101642.00
2023-05-05T05:13:19.876Z,101643.00
2023-05-05T05:15:46.388Z,101651.00
2023-05-05T05:18:13.232Z,101643.00
2023-05-05T05:20:40.968Z,101645.00
2023-05-05T05:23:11.552Z,101643.00
2023-05-05T05:25:38.019Z,101646.00
2023-05-05T05:28:09.580Z,101642.00
2023-05-05T05:30:39.819Z,101644.00
2023-05-05T05:33:06.713Z,101645.00
2023-05-05T05:35:33.280Z,101641.00
2023-05-05T05:37:59.859Z,101644.00
2023-05-05T05:40:27.641Z,101654.00
2023-05-05T05:42:55.621Z,101630.00
2023-05-05T05:45:22.716Z,101643.00
2023-05-05T05:47:49.653Z,101637.00
2023-05-05T05:50:16.213Z,101646.00
2023-05-05T05:52:45.928Z,101648.00
2023-05-05T05:55:12.812Z,101649.00
2023-05-05T05:57:39.309Z,101642.00
2023-05-05T06:00:06.876Z,101635.00
2023-05-05T06:02:35.095Z,101624.00
2023-05-05T06:05:01.684Z,101627.00
2023-05-05T06:07:29.012Z,101627.00
2023-05-05T06:09:55.430Z,101634.00
2023-05-05T06:12:21.959Z,101627.00
2023-05-05T06:14:48.499Z,101625.00
2023-05-05T06:17:15.088Z,101638.00
2023-05-05T06:19:43.841Z,101630.00
2023-05-05T06:22:10.612Z,101622.00
2023-05-05T06:24:37.563Z,101607.00
2023-05-05T06:27:04.362Z,101612.00
2023-05-05T06:29:33.773Z,101613.00
2023-05-05T06:32:01.729Z,101624.00
2023-05-05T06:34:28.552Z,101640.00
2023-05-05T06:36:55.153Z,101638.00
2023-05-05T06:39:23.299Z,101636.00
2023-05-05T06:41:51.125Z,101617.00
2023-05-05T06:44:21.356Z,101625.00
2023-05-05T06:46:48.228Z,101619.00
2023-05-05T06:49:22.232Z,101635.00
2023-05-05T06:51:49.054Z,101626.00
2023-05-05T06:54:16.866Z,101628.00
2023-05-05T06:56:44.420Z,101648.00
2023-05-05T06:59:14.128Z,101650.00
2023-05-05T07:01:41.801Z,101648.00
2023-05-05T07:04:08.346Z,101646.00
2023-05-05T07:06:35.420Z,101647.00
2023-05-05T07:09:04.781Z,101658.00
2023-05-05T07:11:37.899Z,101647.00
2023-05-05T07:14:05.479Z,101655.00
2023-05-05T07:16:34.704Z,101663.00
2023-05-05T07:19:05.512Z,101657.00
2023-05-05T07:21:35.531Z,101657.00
2023-05-05T07:24:05.607Z,101655.00
2023-05-05T07:26:32.800Z,101645.00
2023-05-05T07:28:59.384Z,101651.00
2023-05-05T07:31:26.530Z,101656.00
2023-05-05T07:33:53.400Z,101668.00
2023-05-05T07:36:21.251Z,101665.00
2023-05-05T07:38:50.170Z,101664.00
2023-05-05T07:41:21.990Z,101659.00
2023-05-05T07:43:48.522Z,101674.00
2023-05-05T07:46:16.206Z,101658.00
2023-05-05T07:48:47.570Z,101663.00
2023-05-05T07:51:14.581Z,101669.00
2023-05-05T07:53:42.089Z,101667.00
2023-05-05T07:56:10.276Z,101672.00
2023-05-05T07:58:47.517Z,101678.00
2023-05-05T08:01:14.118Z,101673.00
2023-05-05T08:03:42.444Z,101669.00
2023-05-05T08:06:10.303Z,101665.00
2023-05-05T08:08:37.852Z,101669.00
2023-05-05T08:11:07.439Z,101666.00
2023-05-05T08:13:34.823Z,101668.00
2023-05-05T08:16:01.712Z,101658.00
2023-05-05T08:18:28.529Z,101649.00
2023-05-05T08:20:56.687Z,101645.00
2023-05-05T08:23:23.520Z,101657.00
2023-05-05T08:25:50.049Z,101644.00
2023-05-05T08:28:26.658Z,101659.00
2023-05-05T08:31:03.396Z,101653.00
2023-05-05T08:33:30.114Z,101646.00
2023-05-05T08:35:56.849Z,101662.00
2023-05-05T08:38:25.304Z,101656.00
2023-05-05T08:40:53.432Z,101654.00
2023-05-05T08:43:24.045Z,101647.00
2023-05-05T08:45:56.246Z,101653.00
2023-05-05T08:48:30.559Z,101666.00
2023-05-05T08:51:02.613Z,101660.00
2023-05-05T08:53:58.733Z,101655.00
2023-05-05T08:56:32.602Z,101666.00
2023-05-05T08:59:01.277Z,101662.00
2023-05-05T09:01:28.526Z,101661.00
2023-05-05T09:03:55.700Z,101649.00
2023-05-05T09:06:25.805Z,101656.00
2023-05-05T09:08:53.626Z,101656.00
2023-05-05T09:11:20.109Z,101655.00
2023-05-05T09:13:47.633Z,101659.00
2023-05-05T09:16:14.207Z,101660.00
2023-05-05T09:18:42.812Z,101655.00
2023-05-05T09:21:28.223Z,101662.00
2023-05-05T09:24:12.655Z,101644.00
2023-05-05T09:26:42.803Z,101657.00
2023-05-05T09:29:10.467Z,101645.00
2023-05-05T09:31:37.743Z,101636.00
2023-05-05T09:34:15.568Z,101643.00
2023-05-05T09:36:49.894Z,101636.00
2023-05-05T09:39:20.570Z,101638.00
2023-05-05T09:41:47.186Z,101640.00
2023-05-05T09:44:16.160Z,101634.00
2023-05-05T09:46:51.201Z,101663.00
2023-05-05T09:49:25.637Z,101634.00
2023-05-05T09:51:53.033Z,101645.00
2023-05-05T09:54:23.518Z,101642.00
2023-05-05T09:56:52.594Z,101645.00
2023-05-05T09:59:21.682Z,101662.00
2023-05-05T10:01:49.265Z,101655.00
2023-05-05T10:04:30.198Z,101649.00
2023-05-05T10:06:58.297Z,101661.00
2023-05-05T10:09:27.521Z,101663.00
2023-05-05T10:11:58.192Z,101643.00
2023-05-05T10:14:25.449Z,101650.00
2023-05-05T10:16:53.956Z,101632.00
2023-05-05T10:19:22.223Z,101634.00
2023-05-05T10:21:54.295Z,101636.00
2023-05-05T10:24:34.236Z,101642.00
2023-05-05T10:27:07.811Z,101614.00
2023-05-05T10:29:45.995Z,101635.00
2023-05-05T10:34:59.572Z,101636.00
2023-05-05T10:37:26.330Z,101629.00
2023-05-05T10:39:54.827Z,101628.00
2023-05-05T10:42:25.385Z,101623.00
2023-05-05T10:44:52.275Z,101626.00
2023-05-05T10:47:20.416Z,101621.00
2023-05-05T10:50:17.980Z,101633.00
2023-05-05T10:52:59.967Z,101623.00
2023-05-05T10:56:01.183Z,101626.00
2023-05-05T10:58:58.299Z,101622.00
2023-05-05T11:01:35.326Z,101614.00
2023-05-05T11:04:22.780Z,101619.00
2023-05-05T11:07:10.485Z,101602.00
2023-05-05T11:09:55.785Z,101600.00
2023-05-05T11:12:22.605Z,101621.00
2023-05-05T11:15:24.658Z,101605.00
2023-05-05T11:17:52.333Z,101586.00
2023-05-05T11:20:39.851Z,101590.00
2023-05-05T11:23:06.620Z,101585.00
2023-05-05T11:25:45.337Z,101588.00
2023-05-05T11:28:14.089Z,101588.00
2023-05-05T11:30:56.052Z,101600.00
2023-05-05T11:33:30.956Z,101589.00
2023-05-05T11:36:06.781Z,101577.00
2023-05-05T11:38:53.089Z,101566.00
2023-05-05T11:41:32.667Z,101591.00
2023-05-05T11:44:12.179Z,101569.00
2023-05-05T11:47:04.547Z,101563.00
2023-05-05T11:49:39.558Z,101563.00
2023-05-05T11:52:08.417Z,101571.00
2023-05-05T11:54:36.611Z,101577.00
2023-05-05T11:57:05.712Z,101552.00
2023-05-05T11:59:34.429Z,101557.00
2023-05-05T12:02:01.243Z,101550.00
2023-05-05T12:04:28.062Z,101560.00
2023-05-05T12:06:55.506Z,101554.00
2023-05-05T12:09:23.220Z,101549.00
2023-05-05T12:11:57.309Z,101558.00
2023-05-05T12:14:25.674Z,101536.00
2023-05-05T12:16:56.132Z,101546.00
2023-05-05T12:19:30.616Z,101533.00
2023-05-05T12:21:58.491Z,101546.00
2023-05-05T12:24:29.439Z,101543.00
2023-05-05T12:26:56.197Z,101531.00
2023-05-05T12:29:28.627Z,101539.00
2023-05-05T12:31:55.270Z,101535.00
2023-05-05T12:34:23.908Z,101529.00
2023-05-05T12:36:50.817Z,101532.00
2023-05-05T12:39:17.303Z,101544.00
2023-05-05T12:41:45.517Z,101530.00
2023-05-05T12:44:12.102Z,101539.00
2023-05-05T12:46:46.036Z,101539.00
2023-05-05T12:49:12.696Z,101531.00
2023-05-05T12:51:53.469Z,101528.00
2023-05-05T12:54:23.911Z,101527.00
2023-05-05T12:56:50.500Z,101531.00
2023-05-05T12:59:23.009Z,101531.00
2023-05-05T13:01:54.572Z,101527.00
2023-05-05T13:04:26.197Z,101524.00
2023-05-05T13:07:12.437Z,101513.00
2023-05-05T13:09:39.331Z,101509.00
2023-05-05T13:12:08.357Z,101491.00
2023-05-05T13:14:35.216Z,101511.00
2023-05-05T13:17:01.746Z,101503.00
2023-05-05T13:19:28.792Z,101504.00
2023-05-05T13:21:56.678Z,101499.00
2023-05-05T13:24:42.280Z,101499.00
2023-05-05T13:27:15.757Z,101488.00
2023-05-05T13:29:42.727Z,101485.00
2023-05-05T13:32:09.517Z,101478.00
2023-05-05T13:34:36.036Z,101477.00
2023-05-05T13:37:02.577Z,101490.00
2023-05-05T13:39:29.189Z,101466.00
2023-05-05T13:41:58.331Z,101476.00
2023-05-05T13:44:25.088Z,101469.00
2023-05-05T13:46:52.491Z,101461.00
2023-05-05T13:49:20.096Z,101457.00
2023-05-05T13:51:47.260Z,101477.00
2023-05-05T13:54:14.096Z,101460.00
2023-05-05T13:56:41.021Z,101450.00
2023-05-05T13:59:07.655Z,101437.00
2023-05-05T14:01:34.964Z,101445.00
2023-05-05T14:04:04.549Z,101437.00
2023-05-05T14:06:32.704Z,101440.00
2023-05-05T14:08:59.713Z,101438.00
2023-05-05T14:11:26.390Z,101429.00
2023-05-05T14:13:53.569Z,101422.00
2023-05-05T14:16:21.474Z,101420.00
2023-05-05T14:18:50.220Z,101422.00
2023-05-05T14:21:17.249Z,101425.00
2023-05-05T14:23:43.852Z,101428.00
2023-05-05T14:26:10.338Z,101423.00
2023-05-05T14:28:36.819Z,101420.00
2023-05-05T14:31:03.314Z,101425.00
2023-05-05T14:33:31.437Z,101422.00
2023-05-05T14:35:57.944Z,101424.00
2023-05-05T14:38:24.914Z,101418.00
2023-05-05T14:40:51.521Z,101429.00
2023-05-05T14:43:18.419Z,101406.00
2023-05-05T14:45:47.395Z,101404.00
2023-05-05T14:48:14.334Z,101403.00
2023-05-05T14:50:43.709Z,101423.00
2023-05-05T14:53:10.522Z,101414.00
2023-05-05T14:55:37.236Z,101422.00
2023-05-05T14:58:05.150Z,101426.00
2023-05-05T15:00:31.955Z,101419.00
2023-05-05T15:02:58.758Z,101421.00
2023-05-05T15:05:25.769Z,101424.00
2023-05-05T15:07:53.924Z,101424.00
2023-05-05T15:10:21.944Z,101416.00
2023-05-05T15:12:49.093Z,101405.00
2023-05-05T15:15:15.984Z,101409.00
2023-05-05T15:17:43.244Z,101412.00
2023-05-05T15:20:10.148Z,101404.00
2023-05-05T15:22:36.689Z,101407.00
2023-05-05T15:25:03.300Z,101402.00
2023-05-05T15:27:31.627Z,101397.00
2023-05-05T15:29:58.619Z,101398.00
2023-05-05T15:32:25.222Z,101390.00
2023-05-05T15:34:51.872Z,101405.00
2023-05-05T15:37:20.491Z,101404.00
2023-05-05T15:39:49.176Z,101405.00
2023-05-05T15:42:15.715Z,101413.00
2023-05-05T15:44:42.269Z,101410.00
2023-05-05T15:47:12.064Z,101406.00
2023-05-05T15:49:38.629Z,101405.00
2023-05-05T15:52:07.566Z,101397.00
2023-05-05T15:54:35.382Z,101406.00
2023-05-05T15:57:03.597Z,101403.00
2023-05-05T15:59:30.129Z,101400.00
2023-05-05T16:01:56.592Z,101398.00
2023-05-05T16:04:24.473Z,101404.00
2023-05-05T16:06:50.983Z,101408.00
2023-05-05T16:09:17.762Z,101394.00
2023-05-05T16:11:47.780Z,101401.00
2023-05-05T16:14:14.305Z,101407.00
2023-05-05T16:16:41.047Z,101416.00
2023-05-05T16:19:11.059Z,101409.00
2023-05-05T16:21:38.034Z,101409.00
2023-05-05T16:24:05.400Z,101407.00
2023-05-05T16:26:34.638Z,101401.00
2023-05-05T16:29:01.656Z,101402.00
2023-05-05T16:31:28.529Z,101408.00
2023-05-05T16:33:55.000Z,101411.00
2023-05-05T16:36:22.220Z,101398.00
2023-05-05T16:38:50.040Z,101401.00
2023-05-05T16:41:16.896Z,101393.00
2023-05-05T16:43:44.853Z,101397.00
2023-05-05T16:46:11.897Z,101399.00
2023-05-05T16:48:38.685Z,101405.00
2023-05-05T16:51:05.683Z,101393.00
2023-05-05T16:53:33.923Z,101391.00
2023-05-05T16:56:00.491Z,101387.00
2023-05-05T16:58:27.252Z,101390.00
2023-05-05T17:00:54.935Z,101376.00
2023-05-05T17:03:23.285Z,101384.00
2023-05-05T17:05:53.063Z,101386.00
2023-05-05T17:08:20.102Z,101377.00
2023-05-05T17:10:46.805Z,101372.00
2023-05-05T17:13:14.864Z,101372.00
2023-05-05T17:15:42.070Z,101375.00
2023-05-05T17:18:09.168Z,101374.00
2023-05-05T17:20:36.551Z,101362.00
2023-05-05T17:23:03.810Z,101379.00
2023-05-05T17:25:31.171Z,101378.00
2023-05-05T17:27:57.950Z,101376.00
2023-05-05T17:30:24.498Z,101377.00
2023-05-05T17:32:51.225Z,101377.00
2023-05-05T17:35:18.822Z,101377.00
2023-05-05T17:37:45.566Z,101371.00
2023-05-05T17:40:13.199Z,101367.00
2023-05-05T17:42:42.669Z,101368.00
2023-05-05T17:45:10.018Z,101365.00
2023-05-05T17:47:37.351Z,101362.00
2023-05-05T17:50:06.732Z,101356.00
2023-05-05T17:52:33.286Z,101322.00
2023-05-05T17:54:59.902Z,101356.00
2023-05-05T17:57:26.943Z,101355.00
2023-05-05T17:59:53.781Z,101366.00
2023-05-05T18:02:22.818Z,101346.00
2023-05-05T18:04:49.962Z,101370.00
2023-05-05T18:07:16.730Z,101365.00
2023-05-05T18:09:46.768Z,101381.00
2023-05-05T18:12:13.382Z,101380.00
2023-05-05T18:14:41.490Z,101384.00
2023-05-05T18:17:08.326Z,101387.00
2023-05-05T18:19:36.108Z,101390.00
2023-05-05T18:22:02.653Z,101389.00
2023-05-05T18:24:30.802Z,101388.00
2023-05-05T18:26:58.389Z,101383.00
2023-05-05T18:29:25.438Z,101402.00
2023-05-05T18:31:54.736Z,101397.00
2023-05-05T18:34:21.459Z,101406.00
2023-05-05T18:36:48.244Z,101409.00
2023-05-05T18:39:14.767Z,101417.00
2023-05-05T18:41:41.303Z,101421.00
2023-05-05T18:44:08.332Z,101425.00
2023-05-05T18:46:35.005Z,101413.00
2023-05-05T18:49:01.867Z,101415.00
2023-05-05T18:51:28.728Z,101419.00
2023-05-05T18:53:55.362Z,101416.00
2023-05-05T18:56:21.899Z,101423.00
2023-05-05T18:58:51.060Z,101422.00
2023-05-05T19:01:25.063Z,101436.00
2023-05-05T19:03:51.586Z,101440.00
2023-05-05T19:06:20.551Z,101435.00
2023-05-05T19:08:47.824Z,101432.00
2023-05-05T19:11:15.223Z,101422.00
2023-05-05T19:13:43.363Z,101414.00
2023-05-05T19:16:11.047Z,101402.00
2023-05-05T19:18:37.877Z,101413.00
2023-05-05T19:21:04.506Z,101420.00
2023-05-05T19:23:32.074Z,101426.00
2023-05-05T19:25:58.598Z,101434.00
2023-05-05T19:28:26.227Z,101431.00
2023-05-05T19:30:52.785Z,101445.00
2023-05-05T19:33:19.566Z,101433.00
2023-05-05T19:35:47.658Z,101440.00
2023-05-05T19:38:14.426Z,101429.00
2023-05-05T19:40:41.536Z,101443.00
2023-05-05T19:43:08.343Z,101439.00
2023-05-05T19:45:37.815Z,101414.00
2023-05-05T19:48:11.650Z,101419.00
2023-05-05T19:50:39.002Z,101418.00
2023-05-05T19:53:05.517Z,101424.00
2023-05-05T19:55:33.480Z,101422.00
2023-05-05T19:58:00.053Z,101428.00
2023-05-05T20:00:26.672Z,101439.00
2023-05-05T20:02:53.344Z,101433.00
2023-05-05T20:05:20.540Z,101439.00
2023-05-05T20:07:50.134Z,101434.00
2023-05-05T20:10:17.709Z,101439.00
2023-05-05T20:12:48.567Z,101450.00
2023-05-05T20:15:18.898Z,101427.00
2023-05-05T20:17:47.113Z,101426.00
2023-05-05T20:20:20.272Z,101430.00
2023-05-05T20:22:48.512Z,101425.00
2023-05-05T20:25:16.345Z,101423.00
2023-05-05T20:27:44.419Z,101423.00
2023-05-05T20:30:12.581Z,101427.00
2023-05-05T20:32:42.625Z,101420.00
2023-05-05T20:35:12.849Z,101427.00
2023-05-05T20:37:39.341Z,101425.00
2023-05-05T20:40:06.817Z,101430.00
2023-05-05T20:42:59.151Z,101429.00
2023-05-05T20:45:25.843Z,101421.00
2023-05-05T20:47:53.666Z,101424.00
2023-05-05T20:50:26.474Z,101425.00
2023-05-05T20:52:56.655Z,101426.00
2023-05-05T20:55:23.815Z,101416.00
2023-05-05T20:57:50.274Z,101419.00
2023-05-05T21:00:16.990Z,101422.00
2023-05-05T21:02:43.676Z,101418.00
2023-05-05T21:05:10.314Z,101409.00
2023-05-05T21:07:36.898Z,101417.00
2023-05-05T21:10:04.553Z,101423.00
2023-05-05T21:12:35.691Z,101414.00
2023-05-05T21:15:03.937Z,101420.00
2023-05-05T21:17:30.507Z,101430.00
2023-05-05T21:20:00.798Z,101419.00
2023-05-05T21:22:27.471Z,101424.00
2023-05-05T21:24:54.806Z,101412.00
2023-05-05T21:27:22.610Z,101423.00
2023-05-05T21:29:52.993Z,101428.00
2023-05-05T21:32:19.601Z,101416.00
2023-05-05T21:34:46.478Z,101435.00
2023-05-05T21:37:19.207Z,101431.00
2023-05-05T21:39:51.988Z,101433.00
2023-05-05T21:42:20.160Z,101426.00
2023-05-05T21:44:46.807Z,101420.00
2023-05-05T21:47:14.815Z,101420.00
2023-05-05T21:49:45.504Z,101412.00
2023-05-05T21:52:12.032Z,101420.00
2023-05-05T21:54:41.063Z,101420.00
2023-05-05T21:57:07.728Z,101423.00
2023-05-05T21:59:36.547Z,101419.00
2023-05-05T22:02:03.162Z,101430.00
2023-05-05T22:04:29.764Z,101422.00
2023-05-05T22:06:56.759Z,101422.00
2023-05-05T22:09:23.615Z,101434.00
2023-05-05T22:11:51.765Z,101431.00
2023-05-05T22:14:18.240Z,101442.00
2023-05-05T22:16:44.874Z,101432.00
2023-05-05T22:19:12.123Z,101424.00
2023-05-05T22:21:38.879Z,101438.00
2023-05-05T22:24:07.679Z,101443.00
2023-05-05T22:26:34.299Z,101439.00
2023-05-05T22:29:01.271Z,101443.00
2023-05-05T22:31:30.352Z,101447.00
2023-05-05T22:33:57.239Z,101444.00
2023-05-05T22:36:23.876Z,101444.00
2023-05-05T22:38:50.424Z,101436.00
2023-05-05T22:41:17.893Z,101440.00
2023-05-05T22:43:44.676Z,101434.00
2023-05-05T22:46:12.833Z,101446.00
2023-05-05T22:48:40.592Z,101441.00
2023-05-05T22:51:10.456Z,101435.00
2023-05-05T22:53:37.946Z,101433.00
2023-05-05T22:56:05.030Z,101430.00
2023-05-05T22:58:34.954Z,101433.00
2023-05-05T23:01:02.194Z,101424.00
2023-05-05T23:03:38.111Z,101425.00
2023-05-05T23:06:04.567Z,101429.00
2023-05-05T23:08:31.562Z,101422.00
2023-05-05T23:10:58.164Z,101415.00
2023-05-05T23:13:27.032Z,101407.00
2023-05-05T23:15:53.744Z,101423.00
2023-05-05T23:18:21.649Z,101414.00
2023-05-05T23:20:50.850Z,101421.00
2023-05-05T23:23:19.647Z,101416.00
2023-05-05T23:25:46.165Z,101410.00
2023-05-05T23:28:15.521Z,101412.00
2023-05-05T23:30:42.544Z,101408.00
2023-05-05T23:33:12.075Z,101401.00
2023-05-05T23:35:43.466Z,101401.00
2023-05-05T23:38:10.169Z,101395.00
2023-05-05T23:40:36.602Z,101396.00
2023-05-05T23:43:03.111Z,101397.00
2023-05-05T23:45:33.225Z,101398.00
2023-05-05T23:48:00.615Z,101398.00
2023-05-05T23:50:28.101Z,101393.00
2023-05-05T23:52:54.912Z,101393.00
2023-05-05T23:55:22.476Z,101385.00
2023-05-05T23:57:53.303Z,101376.00
